sensor_id;sensor_type;location;lat;lon;timestamp;P1;durP1;ratioP1;P2;durP2;ratioP2
17065;SDS011;23120;52.336;21.182;2023-04-21T00:01:30;0.20;;;0.20;;
17065;SDS011;23120;52.336;21.182;2023-04-21T00:03:59;0.20;;;0.20;;
17065;SDS011;23120;52.336;21.182;2023-04-21T00:06:26;0.20;;;0.20;;
17065;SDS011;23120;52.336;21.182;2023-04-21T00:08:55;0.20;;;0.20;;
17065;SDS011;23120;52.336;21.182;2023-04-21T00:11:22;0.20;;;0.20;;
17065;SDS011;23120;52.336;21.182;2023-04-21T00:13:49;0.20;;;0.20;;
17065;SDS011;23120;52.336;21.182;2023-04-21T00:16:15;0.20;;;0.20;;
17065;SDS011;23120;52.336;21.182;2023-04-21T00:18:43;0.20;;;0.20;;
17065;SDS011;23120;52.336;21.182;2023-04-21T00:21:11;0.20;;;0.20;;
17065;SDS011;23120;52.336;21.182;2023-04-21T00:23:37;0.20;;;0.20;;
17065;SDS011;23120;52.336;21.182;2023-04-21T00:26:04;0.20;;;0.20;;
17065;SDS011;23120;52.336;21.182;2023-04-21T00:28:31;0.20;;;0.20;;
17065;SDS011;23120;52.336;21.182;2023-04-21T00:30:58;0.20;;;0.20;;
17065;SDS011;23120;52.336;21.182;2023-04-21T00:33:24;0.30;;;0.30;;
17065;SDS011;23120;52.336;21.182;2023-04-21T00:35:53;0.20;;;0.20;;
17065;SDS011;23120;52.336;21.182;2023-04-21T00:38:24;0.20;;;0.20;;
17065;SDS011;23120;52.336;21.182;2023-04-21T00:40:51;0.20;;;0.20;;
17065;SDS011;23120;52.336;21.182;2023-04-21T00:43:18;0.20;;;0.20;;
17065;SDS011;23120;52.336;21.182;2023-04-21T00:45:45;0.30;;;0.30;;
17065;SDS011;23120;52.336;21.182;2023-04-21T00:48:12;0.20;;;0.20;;
17065;SDS011;23120;52.336;21.182;2023-04-21T00:50:39;0.20;;;0.20;;
17065;SDS011;23120;52.336;21.182;2023-04-21T00:53:06;0.30;;;0.30;;
17065;SDS011;23120;52.336;21.182;2023-04-21T00:55:35;0.30;;;0.30;;
17065;SDS011;23120;52.336;21.182;2023-04-21T00:58:01;0.30;;;0.30;;
17065;SDS011;23120;52.336;21.182;2023-04-21T01:00:29;0.20;;;0.20;;
17065;SDS011;23120;52.336;21.182;2023-04-21T01:02:55;0.20;;;0.20;;
17065;SDS011;23120;52.336;21.182;2023-04-21T01:05:27;0.20;;;0.20;;
17065;SDS011;23120;52.336;21.182;2023-04-21T01:07:53;0.20;;;0.20;;
17065;SDS011;23120;52.336;21.182;2023-04-21T01:10:21;0.30;;;0.30;;
17065;SDS011;23120;52.336;21.182;2023-04-21T01:12:51;0.20;;;0.20;;
17065;SDS011;23120;52.336;21.182;2023-04-21T01:15:18;0.20;;;0.20;;
17065;SDS011;23120;52.336;21.182;2023-04-21T01:17:45;0.20;;;0.20;;
17065;SDS011;23120;52.336;21.182;2023-04-21T01:20:14;0.30;;;0.30;;
17065;SDS011;23120;52.336;21.182;2023-04-21T01:22:42;0.20;;;0.20;;
17065;SDS011;23120;52.336;21.182;2023-04-21T01:25:09;0.30;;;0.30;;
17065;SDS011;23120;52.336;21.182;2023-04-21T01:27:36;0.20;;;0.20;;
17065;SDS011;23120;52.336;21.182;2023-04-21T01:30:04;0.20;;;0.20;;
17065;SDS011;23120;52.336;21.182;2023-04-21T01:32:33;0.30;;;0.30;;
17065;SDS011;23120;52.336;21.182;2023-04-21T01:35:00;0.20;;;0.20;;
17065;SDS011;23120;52.336;21.182;2023-04-21T01:37:29;0.20;;;0.20;;
17065;SDS011;23120;52.336;21.182;2023-04-21T01:39:59;0.20;;;0.20;;
17065;SDS011;23120;52.336;21.182;2023-04-21T01:42:29;0.20;;;0.20;;
17065;SDS011;23120;52.336;21.182;2023-04-21T01:44:56;0.20;;;0.20;;
17065;SDS011;23120;52.336;21.182;2023-04-21T01:47:23;0.20;;;0.20;;
17065;SDS011;23120;52.336;21.182;2023-04-21T01:49:51;0.20;;;0.20;;
17065;SDS011;23120;52.336;21.182;2023-04-21T01:52:18;0.20;;;0.20;;
17065;SDS011;23120;52.336;21.182;2023-04-21T01:54:45;0.20;;;0.20;;
17065;SDS011;23120;52.336;21.182;2023-04-21T01:57:14;0.20;;;0.20;;
17065;SDS011;23120;52.336;21.182;2023-04-21T01:59:41;0.30;;;0.30;;
17065;SDS011;23120;52.336;21.182;2023-04-21T02:02:08;0.23;;;0.23;;
17065;SDS011;23120;52.336;21.182;2023-04-21T02:04:35;0.30;;;0.30;;
17065;SDS011;23120;52.336;21.182;2023-04-21T02:07:01;0.20;;;0.20;;
17065;SDS011;23120;52.336;21.182;2023-04-21T02:09:28;0.30;;;0.30;;
17065;SDS011;23120;52.336;21.182;2023-04-21T02:11:55;0.30;;;0.30;;
17065;SDS011;23120;52.336;21.182;2023-04-21T02:14:24;0.20;;;0.20;;
17065;SDS011;23120;52.336;21.182;2023-04-21T02:16:51;0.20;;;0.20;;
17065;SDS011;23120;52.336;21.182;2023-04-21T02:19:18;0.20;;;0.20;;
17065;SDS011;23120;52.336;21.182;2023-04-21T02:21:44;0.30;;;0.30;;
17065;SDS011;23120;52.336;21.182;2023-04-21T02:24:12;0.30;;;0.30;;
17065;SDS011;23120;52.336;21.182;2023-04-21T02:26:38;0.30;;;0.30;;
17065;SDS011;23120;52.336;21.182;2023-04-21T02:29:05;0.20;;;0.20;;
17065;SDS011;23120;52.336;21.182;2023-04-21T02:31:33;0.20;;;0.20;;
17065;SDS011;23120;52.336;21.182;2023-04-21T02:34:00;0.20;;;0.20;;
17065;SDS011;23120;52.336;21.182;2023-04-21T02:36:27;0.30;;;0.30;;
17065;SDS011;23120;52.336;21.182;2023-04-21T02:38:56;0.20;;;0.20;;
17065;SDS011;23120;52.336;21.182;2023-04-21T02:41:23;0.20;;;0.20;;
17065;SDS011;23120;52.336;21.182;2023-04-21T02:43:49;0.20;;;0.20;;
17065;SDS011;23120;52.336;21.182;2023-04-21T02:46:16;0.30;;;0.30;;
17065;SDS011;23120;52.336;21.182;2023-04-21T02:48:44;0.20;;;0.20;;
17065;SDS011;23120;52.336;21.182;2023-04-21T02:51:11;0.20;;;0.20;;
17065;SDS011;23120;52.336;21.182;2023-04-21T02:53:38;0.20;;;0.20;;
17065;SDS011;23120;52.336;21.182;2023-04-21T02:56:06;0.27;;;0.27;;
17065;SDS011;23120;52.336;21.182;2023-04-21T02:58:33;0.30;;;0.30;;
17065;SDS011;23120;52.336;21.182;2023-04-21T03:01:00;0.20;;;0.20;;
17065;SDS011;23120;52.336;21.182;2023-04-21T03:03:28;0.20;;;0.20;;
17065;SDS011;23120;52.336;21.182;2023-04-21T03:05:57;0.20;;;0.20;;
17065;SDS011;23120;52.336;21.182;2023-04-21T03:08:24;0.30;;;0.30;;
17065;SDS011;23120;52.336;21.182;2023-04-21T03:10:51;0.20;;;0.20;;
17065;SDS011;23120;52.336;21.182;2023-04-21T03:13:20;0.20;;;0.20;;
17065;SDS011;23120;52.336;21.182;2023-04-21T03:15:49;0.27;;;0.27;;
17065;SDS011;23120;52.336;21.182;2023-04-21T03:18:17;0.30;;;0.30;;
17065;SDS011;23120;52.336;21.182;2023-04-21T03:20:44;0.20;;;0.20;;
17065;SDS011;23120;52.336;21.182;2023-04-21T03:23:12;0.20;;;0.20;;
17065;SDS011;23120;52.336;21.182;2023-04-21T03:25:39;0.30;;;0.30;;
17065;SDS011;23120;52.336;21.182;2023-04-21T03:28:05;0.20;;;0.20;;
17065;SDS011;23120;52.336;21.182;2023-04-21T03:30:32;0.30;;;0.30;;
17065;SDS011;23120;52.336;21.182;2023-04-21T03:32:59;0.30;;;0.30;;
17065;SDS011;23120;52.336;21.182;2023-04-21T03:35:26;0.30;;;0.30;;
17065;SDS011;23120;52.336;21.182;2023-04-21T03:37:53;0.20;;;0.20;;
17065;SDS011;23120;52.336;21.182;2023-04-21T03:40:21;0.30;;;0.30;;
17065;SDS011;23120;52.336;21.182;2023-04-21T03:42:48;0.20;;;0.20;;
17065;SDS011;23120;52.336;21.182;2023-04-21T03:45:15;0.30;;;0.30;;
17065;SDS011;23120;52.336;21.182;2023-04-21T03:47:43;0.30;;;0.30;;
17065;SDS011;23120;52.336;21.182;2023-04-21T03:50:10;0.30;;;0.30;;
17065;SDS011;23120;52.336;21.182;2023-04-21T03:52:37;0.20;;;0.20;;
17065;SDS011;23120;52.336;21.182;2023-04-21T03:55:04;0.30;;;0.30;;
17065;SDS011;23120;52.336;21.182;2023-04-21T03:57:37;0.30;;;0.30;;
17065;SDS011;23120;52.336;21.182;2023-04-21T04:00:06;0.30;;;0.30;;
17065;SDS011;23120;52.336;21.182;2023-04-21T04:02:38;0.20;;;0.20;;
17065;SDS011;23120;52.336;21.182;2023-04-21T04:05:05;0.20;;;0.20;;
17065;SDS011;23120;52.336;21.182;2023-04-21T04:07:33;0.30;;;0.30;;
17065;SDS011;23120;52.336;21.182;2023-04-21T04:10:00;0.20;;;0.20;;
17065;SDS011;23120;52.336;21.182;2023-04-21T04:12:26;0.30;;;0.30;;
17065;SDS011;23120;52.336;21.182;2023-04-21T04:14:54;0.20;;;0.20;;
17065;SDS011;23120;52.336;21.182;2023-04-21T04:17:21;0.30;;;0.30;;
17065;SDS011;23120;52.336;21.182;2023-04-21T04:19:48;0.30;;;0.30;;
17065;SDS011;23120;52.336;21.182;2023-04-21T04:22:15;0.30;;;0.30;;
17065;SDS011;23120;52.336;21.182;2023-04-21T04:24:42;0.30;;;0.30;;
17065;SDS011;23120;52.336;21.182;2023-04-21T04:27:09;0.20;;;0.20;;
17065;SDS011;23120;52.336;21.182;2023-04-21T04:29:38;0.20;;;0.20;;
17065;SDS011;23120;52.336;21.182;2023-04-21T04:32:06;0.20;;;0.20;;
17065;SDS011;23120;52.336;21.182;2023-04-21T04:34:36;0.20;;;0.20;;
17065;SDS011;23120;52.336;21.182;2023-04-21T04:37:03;0.20;;;0.20;;
17065;SDS011;23120;52.336;21.182;2023-04-21T04:39:30;0.20;;;0.20;;
17065;SDS011;23120;52.336;21.182;2023-04-21T04:41:57;0.20;;;0.20;;
17065;SDS011;23120;52.336;21.182;2023-04-21T04:44:25;0.30;;;0.30;;
17065;SDS011;23120;52.336;21.182;2023-04-21T04:46:52;0.30;;;0.30;;
17065;SDS011;23120;52.336;21.182;2023-04-21T04:49:20;0.20;;;0.20;;
17065;SDS011;23120;52.336;21.182;2023-04-21T04:51:47;0.30;;;0.30;;
17065;SDS011;23120;52.336;21.182;2023-04-21T04:54:14;0.20;;;0.20;;
17065;SDS011;23120;52.336;21.182;2023-04-21T04:56:41;0.20;;;0.20;;
17065;SDS011;23120;52.336;21.182;2023-04-21T04:59:07;0.20;;;0.20;;
17065;SDS011;23120;52.336;21.182;2023-04-21T05:01:35;0.30;;;0.30;;
17065;SDS011;23120;52.336;21.182;2023-04-21T05:04:02;0.20;;;0.20;;
17065;SDS011;23120;52.336;21.182;2023-04-21T05:06:30;0.30;;;0.30;;
17065;SDS011;23120;52.336;21.182;2023-04-21T05:08:57;0.30;;;0.30;;
17065;SDS011;23120;52.336;21.182;2023-04-21T05:11:24;0.20;;;0.20;;
17065;SDS011;23120;52.336;21.182;2023-04-21T05:13:50;0.30;;;0.30;;
17065;SDS011;23120;52.336;21.182;2023-04-21T05:16:17;0.30;;;0.30;;
17065;SDS011;23120;52.336;21.182;2023-04-21T05:18:44;0.20;;;0.20;;
17065;SDS011;23120;52.336;21.182;2023-04-21T05:21:11;0.30;;;0.30;;
17065;SDS011;23120;52.336;21.182;2023-04-21T05:23:39;0.27;;;0.27;;
17065;SDS011;23120;52.336;21.182;2023-04-21T05:26:06;0.30;;;0.30;;
17065;SDS011;23120;52.336;21.182;2023-04-21T05:28:32;0.20;;;0.20;;
17065;SDS011;23120;52.336;21.182;2023-04-21T05:31:00;0.30;;;0.30;;
17065;SDS011;23120;52.336;21.182;2023-04-21T05:33:27;0.23;;;0.23;;
17065;SDS011;23120;52.336;21.182;2023-04-21T05:35:55;0.20;;;0.20;;
17065;SDS011;23120;52.336;21.182;2023-04-21T05:38:22;0.30;;;0.30;;
17065;SDS011;23120;52.336;21.182;2023-04-21T05:40:53;0.20;;;0.20;;
17065;SDS011;23120;52.336;21.182;2023-04-21T05:43:20;0.20;;;0.20;;
17065;SDS011;23120;52.336;21.182;2023-04-21T05:45:47;0.20;;;0.20;;
17065;SDS011;23120;52.336;21.182;2023-04-21T05:48:14;0.30;;;0.30;;
17065;SDS011;23120;52.336;21.182;2023-04-21T05:50:41;0.20;;;0.20;;
17065;SDS011;23120;52.336;21.182;2023-04-21T05:53:07;0.20;;;0.20;;
17065;SDS011;23120;52.336;21.182;2023-04-21T05:55:34;0.30;;;0.30;;
17065;SDS011;23120;52.336;21.182;2023-04-21T05:58:03;0.20;;;0.20;;
17065;SDS011;23120;52.336;21.182;2023-04-21T06:00:29;0.30;;;0.30;;
17065;SDS011;23120;52.336;21.182;2023-04-21T06:02:56;0.20;;;0.20;;
17065;SDS011;23120;52.336;21.182;2023-04-21T06:05:23;0.30;;;0.30;;
17065;SDS011;23120;52.336;21.182;2023-04-21T06:07:50;0.30;;;0.30;;
17065;SDS011;23120;52.336;21.182;2023-04-21T06:10:17;0.20;;;0.20;;
17065;SDS011;23120;52.336;21.182;2023-04-21T06:12:44;0.20;;;0.20;;
17065;SDS011;23120;52.336;21.182;2023-04-21T06:15:12;0.20;;;0.20;;
17065;SDS011;23120;52.336;21.182;2023-04-21T06:17:38;0.30;;;0.30;;
17065;SDS011;23120;52.336;21.182;2023-04-21T06:20:07;0.20;;;0.20;;
17065;SDS011;23120;52.336;21.182;2023-04-21T06:22:34;0.20;;;0.20;;
17065;SDS011;23120;52.336;21.182;2023-04-21T06:25:01;0.30;;;0.30;;
17065;SDS011;23120;52.336;21.182;2023-04-21T06:27:28;0.30;;;0.30;;
17065;SDS011;23120;52.336;21.182;2023-04-21T06:29:55;0.20;;;0.20;;
17065;SDS011;23120;52.336;21.182;2023-04-21T06:32:23;0.20;;;0.20;;
17065;SDS011;23120;52.336;21.182;2023-04-21T06:34:50;0.20;;;0.20;;
17065;SDS011;23120;52.336;21.182;2023-04-21T06:37:16;0.30;;;0.30;;
17065;SDS011;23120;52.336;21.182;2023-04-21T06:39:43;0.20;;;0.20;;
17065;SDS011;23120;52.336;21.182;2023-04-21T06:42:10;0.30;;;0.30;;
17065;SDS011;23120;52.336;21.182;2023-04-21T06:44:46;0.30;;;0.30;;
17065;SDS011;23120;52.336;21.182;2023-04-21T06:47:13;0.20;;;0.20;;
17065;SDS011;23120;52.336;21.182;2023-04-21T06:49:42;0.20;;;0.20;;
17065;SDS011;23120;52.336;21.182;2023-04-21T06:52:08;0.20;;;0.20;;
17065;SDS011;23120;52.336;21.182;2023-04-21T06:54:35;0.20;;;0.20;;
17065;SDS011;23120;52.336;21.182;2023-04-21T06:57:02;0.20;;;0.20;;
17065;SDS011;23120;52.336;21.182;2023-04-21T06:59:29;0.20;;;0.20;;
17065;SDS011;23120;52.336;21.182;2023-04-21T07:01:56;0.20;;;0.20;;
17065;SDS011;23120;52.336;21.182;2023-04-21T07:04:22;0.23;;;0.23;;
17065;SDS011;23120;52.336;21.182;2023-04-21T07:06:55;0.30;;;0.30;;
17065;SDS011;23120;52.336;21.182;2023-04-21T07:09:22;0.20;;;0.20;;
17065;SDS011;23120;52.336;21.182;2023-04-21T07:11:49;0.20;;;0.20;;
17065;SDS011;23120;52.336;21.182;2023-04-21T07:14:15;0.20;;;0.20;;
17065;SDS011;23120;52.336;21.182;2023-04-21T07:16:42;0.20;;;0.20;;
17065;SDS011;23120;52.336;21.182;2023-04-21T07:19:09;0.20;;;0.20;;
17065;SDS011;23120;52.336;21.182;2023-04-21T07:21:36;0.20;;;0.20;;
17065;SDS011;23120;52.336;21.182;2023-04-21T07:24:04;0.20;;;0.20;;
17065;SDS011;23120;52.336;21.182;2023-04-21T07:26:31;0.20;;;0.20;;
17065;SDS011;23120;52.336;21.182;2023-04-21T07:28:58;0.20;;;0.20;;
17065;SDS011;23120;52.336;21.182;2023-04-21T07:31:25;0.20;;;0.20;;
17065;SDS011;23120;52.336;21.182;2023-04-21T07:33:52;0.20;;;0.20;;
17065;SDS011;23120;52.336;21.182;2023-04-21T07:36:18;0.30;;;0.30;;
17065;SDS011;23120;52.336;21.182;2023-04-21T07:38:45;0.20;;;0.20;;
17065;SDS011;23120;52.336;21.182;2023-04-21T07:41:13;0.20;;;0.20;;
17065;SDS011;23120;52.336;21.182;2023-04-21T07:43:40;0.20;;;0.20;;
17065;SDS011;23120;52.336;21.182;2023-04-21T07:46:07;0.20;;;0.20;;
17065;SDS011;23120;52.336;21.182;2023-04-21T07:48:33;0.20;;;0.20;;
17065;SDS011;23120;52.336;21.182;2023-04-21T07:51:00;0.20;;;0.20;;
17065;SDS011;23120;52.336;21.182;2023-04-21T07:53:27;0.20;;;0.20;;
17065;SDS011;23120;52.336;21.182;2023-04-21T07:55:54;0.20;;;0.20;;
17065;SDS011;23120;52.336;21.182;2023-04-21T07:58:22;0.20;;;0.20;;
17065;SDS011;23120;52.336;21.182;2023-04-21T08:00:49;0.20;;;0.20;;
17065;SDS011;23120;52.336;21.182;2023-04-21T08:03:16;0.20;;;0.20;;
17065;SDS011;23120;52.336;21.182;2023-04-21T08:05:43;0.20;;;0.20;;
17065;SDS011;23120;52.336;21.182;2023-04-21T08:08:10;0.20;;;0.20;;
17065;SDS011;23120;52.336;21.182;2023-04-21T08:10:36;0.20;;;0.20;;
17065;SDS011;23120;52.336;21.182;2023-04-21T08:13:03;0.20;;;0.20;;
17065;SDS011;23120;52.336;21.182;2023-04-21T08:15:32;0.10;;;0.10;;
17065;SDS011;23120;52.336;21.182;2023-04-21T08:17:59;0.20;;;0.20;;
17065;SDS011;23120;52.336;21.182;2023-04-21T08:20:26;0.20;;;0.20;;
17065;SDS011;23120;52.336;21.182;2023-04-21T08:22:52;0.10;;;0.10;;
17065;SDS011;23120;52.336;21.182;2023-04-21T08:25:19;0.10;;;0.10;;
17065;SDS011;23120;52.336;21.182;2023-04-21T08:27:46;0.10;;;0.10;;
17065;SDS011;23120;52.336;21.182;2023-04-21T08:30:13;0.20;;;0.20;;
17065;SDS011;23120;52.336;21.182;2023-04-21T08:32:42;0.20;;;0.20;;
17065;SDS011;23120;52.336;21.182;2023-04-21T08:35:09;0.20;;;0.20;;
17065;SDS011;23120;52.336;21.182;2023-04-21T08:37:35;0.10;;;0.10;;
17065;SDS011;23120;52.336;21.182;2023-04-21T08:40:03;0.10;;;0.10;;
17065;SDS011;23120;52.336;21.182;2023-04-21T08:42:30;0.10;;;0.10;;
17065;SDS011;23120;52.336;21.182;2023-04-21T08:44:58;0.20;;;0.20;;
17065;SDS011;23120;52.336;21.182;2023-04-21T08:47:25;0.13;;;0.13;;
17065;SDS011;23120;52.336;21.182;2023-04-21T08:49:55;0.20;;;0.20;;
17065;SDS011;23120;52.336;21.182;2023-04-21T08:52:22;0.10;;;0.10;;
17065;SDS011;23120;52.336;21.182;2023-04-21T08:54:49;0.10;;;0.10;;
17065;SDS011;23120;52.336;21.182;2023-04-21T08:57:17;0.10;;;0.10;;
17065;SDS011;23120;52.336;21.182;2023-04-21T08:59:44;0.10;;;0.10;;
17065;SDS011;23120;52.336;21.182;2023-04-21T09:02:11;0.10;;;0.10;;
17065;SDS011;23120;52.336;21.182;2023-04-21T09:04:40;0.10;;;0.10;;
17065;SDS011;23120;52.336;21.182;2023-04-21T09:07:08;0.10;;;0.10;;
17065;SDS011;23120;52.336;21.182;2023-04-21T09:09:51;0.10;;;0.10;;
17065;SDS011;23120;52.336;21.182;2023-04-21T09:12:18;0.10;;;0.10;;
17065;SDS011;23120;52.336;21.182;2023-04-21T09:14:46;0.10;;;0.10;;
17065;SDS011;23120;52.336;21.182;2023-04-21T09:17:14;0.10;;;0.10;;
17065;SDS011;23120;52.336;21.182;2023-04-21T09:19:42;0.20;;;0.20;;
17065;SDS011;23120;52.336;21.182;2023-04-21T09:22:11;0.20;;;0.20;;
17065;SDS011;23120;52.336;21.182;2023-04-21T09:24:43;0.10;;;0.10;;
17065;SDS011;23120;52.336;21.182;2023-04-21T09:27:11;0.10;;;0.10;;
17065;SDS011;23120;52.336;21.182;2023-04-21T09:29:38;0.10;;;0.10;;
17065;SDS011;23120;52.336;21.182;2023-04-21T09:32:15;0.10;;;0.10;;
17065;SDS011;23120;52.336;21.182;2023-04-21T09:34:42;0.15;;;0.15;;
17065;SDS011;23120;52.336;21.182;2023-04-21T09:37:11;0.10;;;0.10;;
17065;SDS011;23120;52.336;21.182;2023-04-21T09:39:39;0.10;;;0.10;;
17065;SDS011;23120;52.336;21.182;2023-04-21T09:42:10;0.10;;;0.10;;
17065;SDS011;23120;52.336;21.182;2023-04-21T09:44:37;0.10;;;0.10;;
17065;SDS011;23120;52.336;21.182;2023-04-21T09:47:04;0.10;;;0.10;;
17065;SDS011;23120;52.336;21.182;2023-04-21T09:49:36;0.10;;;0.10;;
17065;SDS011;23120;52.336;21.182;2023-04-21T09:52:08;0.10;;;0.10;;
17065;SDS011;23120;52.336;21.182;2023-04-21T09:54:41;0.10;;;0.10;;
17065;SDS011;23120;52.336;21.182;2023-04-21T09:57:12;0.10;;;0.10;;
17065;SDS011;23120;52.336;21.182;2023-04-21T09:59:45;0.10;;;0.10;;
17065;SDS011;23120;52.336;21.182;2023-04-21T10:02:12;0.10;;;0.10;;
17065;SDS011;23120;52.336;21.182;2023-04-21T10:04:40;0.10;;;0.10;;
17065;SDS011;23120;52.336;21.182;2023-04-21T10:07:08;0.10;;;0.10;;
17065;SDS011;23120;52.336;21.182;2023-04-21T10:09:39;0.10;;;0.10;;
17065;SDS011;23120;52.336;21.182;2023-04-21T10:12:08;0.10;;;0.10;;
17065;SDS011;23120;52.336;21.182;2023-04-21T10:14:35;0.10;;;0.10;;
17065;SDS011;23120;52.336;21.182;2023-04-21T10:17:02;0.10;;;0.10;;
17065;SDS011;23120;52.336;21.182;2023-04-21T10:19:30;0.10;;;0.10;;
17065;SDS011;23120;52.336;21.182;2023-04-21T10:22:01;0.10;;;0.10;;
17065;SDS011;23120;52.336;21.182;2023-04-21T10:24:29;0.10;;;0.10;;
17065;SDS011;23120;52.336;21.182;2023-04-21T10:26:56;0.10;;;0.10;;
17065;SDS011;23120;52.336;21.182;2023-04-21T10:29:29;0.10;;;0.10;;
17065;SDS011;23120;52.336;21.182;2023-04-21T10:31:59;0.10;;;0.10;;
17065;SDS011;23120;52.336;21.182;2023-04-21T10:34:29;0.10;;;0.10;;
17065;SDS011;23120;52.336;21.182;2023-04-21T10:37:10;0.10;;;0.10;;
17065;SDS011;23120;52.336;21.182;2023-04-21T10:39:45;0.10;;;0.10;;
17065;SDS011;23120;52.336;21.182;2023-04-21T10:42:19;0.10;;;0.10;;
17065;SDS011;23120;52.336;21.182;2023-04-21T10:45:04;0.10;;;0.10;;
17065;SDS011;23120;52.336;21.182;2023-04-21T10:47:36;0.10;;;0.10;;
17065;SDS011;23120;52.336;21.182;2023-04-21T10:50:10;0.10;;;0.10;;
17065;SDS011;23120;52.336;21.182;2023-04-21T10:52:51;0.10;;;0.10;;
17065;SDS011;23120;52.336;21.182;2023-04-21T10:55:21;0.10;;;0.10;;
17065;SDS011;23120;52.336;21.182;2023-04-21T10:57:51;0.10;;;0.10;;
17065;SDS011;23120;52.336;21.182;2023-04-21T11:00:18;0.10;;;0.10;;
17065;SDS011;23120;52.336;21.182;2023-04-21T11:02:54;0.10;;;0.10;;
17065;SDS011;23120;52.336;21.182;2023-04-21T11:05:29;0.10;;;0.10;;
17065;SDS011;23120;52.336;21.182;2023-04-21T11:08:05;0.10;;;0.10;;
17065;SDS011;23120;52.336;21.182;2023-04-21T11:10:46;0.10;;;0.10;;
17065;SDS011;23120;52.336;21.182;2023-04-21T11:13:22;0.10;;;0.10;;
17065;SDS011;23120;52.336;21.182;2023-04-21T11:18:38;0.10;;;0.10;;
17065;SDS011;23120;52.336;21.182;2023-04-21T11:21:07;0.10;;;0.10;;
17065;SDS011;23120;52.336;21.182;2023-04-21T11:23:34;0.00;;;0.00;;
17065;SDS011;23120;52.336;21.182;2023-04-21T11:26:06;0.10;;;0.10;;
17065;SDS011;23120;52.336;21.182;2023-04-21T11:28:33;0.10;;;0.10;;
17065;SDS011;23120;52.336;21.182;2023-04-21T11:31:00;0.10;;;0.10;;
17065;SDS011;23120;52.336;21.182;2023-04-21T11:33:27;0.10;;;0.10;;
17065;SDS011;23120;52.336;21.182;2023-04-21T11:35:56;0.10;;;0.10;;
17065;SDS011;23120;52.336;21.182;2023-04-21T11:38:24;0.10;;;0.10;;
17065;SDS011;23120;52.336;21.182;2023-04-21T11:40:51;0.10;;;0.10;;
17065;SDS011;23120;52.336;21.182;2023-04-21T11:43:20;0.00;;;0.00;;
17065;SDS011;23120;52.336;21.182;2023-04-21T11:45:48;0.10;;;0.10;;
17065;SDS011;23120;52.336;21.182;2023-04-21T11:48:15;0.10;;;0.10;;
17065;SDS011;23120;52.336;21.182;2023-04-21T11:50:46;0.10;;;0.10;;
17065;SDS011;23120;52.336;21.182;2023-04-21T11:53:13;0.10;;;0.10;;
17065;SDS011;23120;52.336;21.182;2023-04-21T11:55:40;0.00;;;0.00;;
17065;SDS011;23120;52.336;21.182;2023-04-21T11:58:08;0.10;;;0.10;;
17065;SDS011;23120;52.336;21.182;2023-04-21T12:00:37;0.10;;;0.10;;
17065;SDS011;23120;52.336;21.182;2023-04-21T12:03:07;0.10;;;0.10;;
17065;SDS011;23120;52.336;21.182;2023-04-21T12:05:34;0.00;;;0.00;;
17065;SDS011;23120;52.336;21.182;2023-04-21T12:08:03;0.10;;;0.10;;
17065;SDS011;23120;52.336;21.182;2023-04-21T12:10:30;0.00;;;0.00;;
17065;SDS011;23120;52.336;21.182;2023-04-21T12:12:58;0.10;;;0.10;;
17065;SDS011;23120;52.336;21.182;2023-04-21T12:15:25;0.10;;;0.10;;
17065;SDS011;23120;52.336;21.182;2023-04-21T12:17:56;0.00;;;0.00;;
17065;SDS011;23120;52.336;21.182;2023-04-21T12:20:27;0.10;;;0.10;;
17065;SDS011;23120;52.336;21.182;2023-04-21T12:22:54;0.00;;;0.00;;
17065;SDS011;23120;52.336;21.182;2023-04-21T12:25:21;0.10;;;0.10;;
17065;SDS011;23120;52.336;21.182;2023-04-21T12:27:49;0.10;;;0.10;;
17065;SDS011;23120;52.336;21.182;2023-04-21T12:30:17;0.10;;;0.10;;
17065;SDS011;23120;52.336;21.182;2023-04-21T12:32:44;0.10;;;0.10;;
17065;SDS011;23120;52.336;21.182;2023-04-21T12:35:13;0.10;;;0.10;;
17065;SDS011;23120;52.336;21.182;2023-04-21T12:37:40;0.10;;;0.10;;
17065;SDS011;23120;52.336;21.182;2023-04-21T12:40:07;0.00;;;0.00;;
17065;SDS011;23120;52.336;21.182;2023-04-21T12:42:34;0.10;;;0.10;;
17065;SDS011;23120;52.336;21.182;2023-04-21T12:45:01;0.03;;;0.03;;
17065;SDS011;23120;52.336;21.182;2023-04-21T12:47:29;0.10;;;0.10;;
17065;SDS011;23120;52.336;21.182;2023-04-21T12:49:56;0.00;;;0.00;;
17065;SDS011;23120;52.336;21.182;2023-04-21T12:52:24;0.03;;;0.03;;
17065;SDS011;23120;52.336;21.182;2023-04-21T12:54:51;0.10;;;0.10;;
17065;SDS011;23120;52.336;21.182;2023-04-21T12:57:19;0.10;;;0.10;;
17065;SDS011;23120;52.336;21.182;2023-04-21T12:59:46;0.10;;;0.10;;
17065;SDS011;23120;52.336;21.182;2023-04-21T13:02:13;0.10;;;0.10;;
17065;SDS011;23120;52.336;21.182;2023-04-21T13:04:40;0.10;;;0.10;;
17065;SDS011;23120;52.336;21.182;2023-04-21T13:07:07;0.00;;;0.00;;
17065;SDS011;23120;52.336;21.182;2023-04-21T13:09:36;0.10;;;0.10;;
17065;SDS011;23120;52.336;21.182;2023-04-21T13:12:03;0.00;;;0.00;;
17065;SDS011;23120;52.336;21.182;2023-04-21T13:14:31;0.03;;;0.03;;
17065;SDS011;23120;52.336;21.182;2023-04-21T13:16:58;0.10;;;0.10;;
17065;SDS011;23120;52.336;21.182;2023-04-21T13:19:25;0.10;;;0.10;;
17065;SDS011;23120;52.336;21.182;2023-04-21T13:21:53;0.10;;;0.10;;
17065;SDS011;23120;52.336;21.182;2023-04-21T13:24:20;0.10;;;0.10;;
17065;SDS011;23120;52.336;21.182;2023-04-21T13:26:49;0.00;;;0.00;;
17065;SDS011;23120;52.336;21.182;2023-04-21T13:29:15;0.10;;;0.10;;
17065;SDS011;23120;52.336;21.182;2023-04-21T13:31:43;0.00;;;0.00;;
17065;SDS011;23120;52.336;21.182;2023-04-21T13:34:10;0.10;;;0.10;;
17065;SDS011;23120;52.336;21.182;2023-04-21T13:36:37;0.10;;;0.10;;
17065;SDS011;23120;52.336;21.182;2023-04-21T13:39:07;0.10;;;0.10;;
17065;SDS011;23120;52.336;21.182;2023-04-21T13:41:34;0.10;;;0.10;;
17065;SDS011;23120;52.336;21.182;2023-04-21T13:44:02;0.00;;;0.00;;
17065;SDS011;23120;52.336;21.182;2023-04-21T13:46:29;0.10;;;0.10;;
17065;SDS011;23120;52.336;21.182;2023-04-21T13:48:56;0.10;;;0.10;;
17065;SDS011;23120;52.336;21.182;2023-04-21T13:51:23;0.10;;;0.10;;
17065;SDS011;23120;52.336;21.182;2023-04-21T13:53:50;0.00;;;0.00;;
17065;SDS011;23120;52.336;21.182;2023-04-21T13:56:17;0.00;;;0.00;;
17065;SDS011;23120;52.336;21.182;2023-04-21T13:58:44;0.00;;;0.00;;
17065;SDS011;23120;52.336;21.182;2023-04-21T14:01:12;0.03;;;0.03;;
17065;SDS011;23120;52.336;21.182;2023-04-21T14:03:40;0.00;;;0.00;;
17065;SDS011;23120;52.336;21.182;2023-04-21T14:06:07;0.00;;;0.00;;
17065;SDS011;23120;52.336;21.182;2023-04-21T14:08:34;0.00;;;0.00;;
17065;SDS011;23120;52.336;21.182;2023-04-21T14:11:01;0.00;;;0.00;;
17065;SDS011;23120;52.336;21.182;2023-04-21T14:13:28;0.00;;;0.00;;
17065;SDS011;23120;52.336;21.182;2023-04-21T14:15:55;0.00;;;0.00;;
17065;SDS011;23120;52.336;21.182;2023-04-21T14:18:24;0.00;;;0.00;;
17065;SDS011;23120;52.336;21.182;2023-04-21T14:20:51;0.00;;;0.00;;
17065;SDS011;23120;52.336;21.182;2023-04-21T14:23:18;0.00;;;0.00;;
17065;SDS011;23120;52.336;21.182;2023-04-21T14:25:44;0.00;;;0.00;;
17065;SDS011;23120;52.336;21.182;2023-04-21T14:28:11;0.00;;;0.00;;
17065;SDS011;23120;52.336;21.182;2023-04-21T14:30:38;0.00;;;0.00;;
17065;SDS011;23120;52.336;21.182;2023-04-21T14:33:07;0.00;;;0.00;;
17065;SDS011;23120;52.336;21.182;2023-04-21T14:35:36;0.00;;;0.00;;
17065;SDS011;23120;52.336;21.182;2023-04-21T14:38:02;0.00;;;0.00;;
17065;SDS011;23120;52.336;21.182;2023-04-21T14:40:29;0.00;;;0.00;;